sensor_id;sensor_type;location;lat;lon;timestamp;pressure;altitude;pressure_sealevel;temperature;humidity
54806;BME280;62866;55.776;37.496;2022-08-19T00:00:13;100452.16;;;22.79;50.61
54806;BME280;62866;55.776;37.496;2022-08-19T00:02:40;100454.06;;;22.79;50.67
54806;BME280;62866;55.776;37.496;2022-08-19T00:05:07;100458.16;;;22.76;50.61
54806;BME280;62866;55.776;37.496;2022-08-19T00:07:33;100476.22;;;22.82;50.89
54806;BME280;62866;55.776;37.496;2022-08-19T00:09:59;100467.69;;;22.79;51.14
54806;BME280;62866;55.776;37.496;2022-08-19T00:12:24;100461.13;;;22.75;50.97
54806;BME280;62866;55.776;37.496;2022-08-19T00:14:50;100464.69;;;22.75;51.19
54806;BME280;62866;55.776;37.496;2022-08-19T00:17:16;100474.63;;;22.69;51.31
54806;BME280;62866;55.776;37.496;2022-08-19T00:19:41;100475.97;;;22.67;51.43
54806;BME280;62866;55.776;37.496;2022-08-19T00:22:07;100476.97;;;22.61;51.70
54806;BME280;62866;55.776;37.496;2022-08-19T00:24:34;100471.22;;;22.57;51.93
54806;BME280;62866;55.776;37.496;2022-08-19T00:27:01;100476.06;;;22.55;52.14
54806;BME280;62866;55.776;37.496;2022-08-19T00:29:27;100478.34;;;22.42;52.35
54806;BME280;62866;55.776;37.496;2022-08-19T00:31:53;100484.28;;;22.39;52.93
54806;BME280;62866;55.776;37.496;2022-08-19T00:34:21;100464.72;;;22.25;53.09
54806;BME280;62866;55.776;37.496;2022-08-19T00:36:47;100473.97;;;22.24;53.57
54806;BME280;62866;55.776;37.496;2022-08-19T00:39:17;100474.38;;;22.16;53.95
54806;BME280;62866;55.776;37.496;2022-08-19T00:41:44;100483.03;;;22.13;53.89
54806;BME280;62866;55.776;37.496;2022-08-19T00:44:24;100475.88;;;22.07;53.59
54806;BME280;62866;55.776;37.496;2022-08-19T00:46:52;100486.09;;;22.00;54.71
54806;BME280;62866;55.776;37.496;2022-08-19T00:49:31;100486.13;;;21.88;55.30
54806;BME280;62866;55.776;37.496;2022-08-19T00:52:03;100489.72;;;21.77;55.21
54806;BME280;62866;55.776;37.496;2022-08-19T00:54:30;100490.13;;;21.69;55.79
54806;BME280;62866;55.776;37.496;2022-08-19T00:56:57;100501.53;;;21.66;55.89
54806;BME280;62866;55.776;37.496;2022-08-19T00:59:24;100507.13;;;21.59;55.93
54806;BME280;62866;55.776;37.496;2022-08-19T01:01:50;100496.13;;;21.54;56.27
54806;BME280;62866;55.776;37.496;2022-08-19T01:04:16;100499.00;;;21.47;56.20
54806;BME280;62866;55.776;37.496;2022-08-19T01:06:41;100488.50;;;21.39;56.38
54806;BME280;62866;55.776;37.496;2022-08-19T01:09:08;100510.50;;;21.38;56.43
54806;BME280;62866;55.776;37.496;2022-08-19T01:11:36;100514.44;;;21.30;56.60
54806;BME280;62866;55.776;37.496;2022-08-19T01:14:05;100503.56;;;21.18;56.82
54806;BME280;62866;55.776;37.496;2022-08-19T01:16:32;100509.47;;;21.27;56.57
54806;BME280;62866;55.776;37.496;2022-08-19T01:18:58;100505.00;;;21.21;56.72
54806;BME280;62866;55.776;37.496;2022-08-19T01:21:44;100525.91;;;21.32;56.29
54806;BME280;62866;55.776;37.496;2022-08-19T01:24:12;100521.41;;;21.26;56.52
54806;BME280;62866;55.776;37.496;2022-08-19T01:26:41;100514.81;;;21.22;56.98
54806;BME280;62866;55.776;37.496;2022-08-19T01:29:08;100513.63;;;21.18;56.34
54806;BME280;62866;55.776;37.496;2022-08-19T01:31:34;100515.75;;;21.16;56.58
54806;BME280;62866;55.776;37.496;2022-08-19T01:34:01;100521.66;;;21.13;56.54
54806;BME280;62866;55.776;37.496;2022-08-19T01:36:42;100527.09;;;21.13;56.04
54806;BME280;62866;55.776;37.496;2022-08-19T01:39:13;100523.31;;;21.14;56.39
54806;BME280;62866;55.776;37.496;2022-08-19T01:41:39;100511.84;;;21.12;56.42
54806;BME280;62866;55.776;37.496;2022-08-19T01:44:06;100519.53;;;21.15;56.39
54806;BME280;62866;55.776;37.496;2022-08-19T01:46:32;100517.03;;;21.13;56.39
54806;BME280;62866;55.776;37.496;2022-08-19T01:48:59;100519.75;;;21.13;55.98
54806;BME280;62866;55.776;37.496;2022-08-19T01:51:26;100517.88;;;21.14;56.08
54806;BME280;62866;55.776;37.496;2022-08-19T01:53:51;100527.09;;;21.13;55.78
54806;BME280;62866;55.776;37.496;2022-08-19T01:56:18;100521.88;;;21.11;55.60
54806;BME280;62866;55.776;37.496;2022-08-19T01:58:52;100503.81;;;21.05;55.70
54806;BME280;62866;55.776;37.496;2022-08-19T02:01:19;100516.69;;;21.10;55.65
54806;BME280;62866;55.776;37.496;2022-08-19T02:03:45;100512.22;;;21.04;55.53
54806;BME280;62866;55.776;37.496;2022-08-19T02:06:11;100513.41;;;21.08;55.76
54806;BME280;62866;55.776;37.496;2022-08-19T02:08:38;100504.88;;;21.04;55.73
54806;BME280;62866;55.776;37.496;2022-08-19T02:11:04;100507.97;;;21.08;55.98
54806;BME280;62866;55.776;37.496;2022-08-19T02:13:30;100508.53;;;21.10;55.42
54806;BME280;62866;55.776;37.496;2022-08-19T02:15:56;100504.28;;;21.02;55.64
54806;BME280;62866;55.776;37.496;2022-08-19T02:18:21;100504.88;;;21.04;55.43
54806;BME280;62866;55.776;37.496;2022-08-19T02:20:47;100507.97;;;21.08;55.35
54806;BME280;62866;55.776;37.496;2022-08-19T02:23:14;100501.94;;;21.06;55.72
54806;BME280;62866;55.776;37.496;2022-08-19T02:25:39;100494.38;;;20.96;55.83
54806;BME280;62866;55.776;37.496;2022-08-19T02:28:06;100493.56;;;20.96;55.98
54806;BME280;62866;55.776;37.496;2022-08-19T02:30:31;100516.13;;;20.96;55.95
54806;BME280;62866;55.776;37.496;2022-08-19T02:32:57;100530.31;;;20.98;56.08
54806;BME280;62866;55.776;37.496;2022-08-19T02:35:23;100529.47;;;20.98;55.73
54806;BME280;62866;55.776;37.496;2022-08-19T02:37:49;100543.78;;;21.05;55.52
54806;BME280;62866;55.776;37.496;2022-08-19T02:40:34;100544.13;;;21.08;55.65
54806;BME280;62866;55.776;37.496;2022-08-19T02:43:02;100546.72;;;21.15;55.52
54806;BME280;62866;55.776;37.496;2022-08-19T02:45:33;100547.53;;;21.15;55.50
54806;BME280;62866;55.776;37.496;2022-08-19T02:47:58;100534.41;;;21.12;55.54
54806;BME280;62866;55.776;37.496;2022-08-19T02:50:24;100539.84;;;21.12;55.59
54806;BME280;62866;55.776;37.496;2022-08-19T02:52:49;100544.47;;;21.12;55.66
54806;BME280;62866;55.776;37.496;2022-08-19T02:55:15;100535.47;;;21.11;55.64
54806;BME280;62866;55.776;37.496;2022-08-19T02:57:40;100538.44;;;21.10;55.72
54806;BME280;62866;55.776;37.496;2022-08-19T03:00:07;100540.09;;;21.11;55.67
54806;BME280;62866;55.776;37.496;2022-08-19T03:02:34;100513.88;;;20.93;56.09
54806;BME280;62866;55.776;37.496;2022-08-19T03:05:00;100539.16;;;21.05;55.81
54806;BME280;62866;55.776;37.496;2022-08-19T03:07:27;100538.22;;;21.00;56.02
54806;BME280;62866;55.776;37.496;2022-08-19T03:09:52;100537.41;;;20.99;56.14
54806;BME280;62866;55.776;37.496;2022-08-19T03:12:18;100534.91;;;20.98;55.90
54806;BME280;62866;55.776;37.496;2022-08-19T03:14:43;100526.53;;;20.99;56.02
54806;BME280;62866;55.776;37.496;2022-08-19T03:17:11;100541.19;;;20.98;56.14
54806;BME280;62866;55.776;37.496;2022-08-19T03:19:37;100546.63;;;20.98;56.05
54806;BME280;62866;55.776;37.496;2022-08-19T03:22:03;100535.88;;;20.92;56.11
54806;BME280;62866;55.776;37.496;2022-08-19T03:24:29;100559.16;;;20.99;56.29
54806;BME280;62866;55.776;37.496;2022-08-19T03:26:55;100552.06;;;20.98;56.47
54806;BME280;62866;55.776;37.496;2022-08-19T03:29:22;100545.06;;;21.02;56.24
54806;BME280;62866;55.776;37.496;2022-08-19T03:31:48;100543.66;;;21.00;56.37
54806;BME280;62866;55.776;37.496;2022-08-19T03:34:19;100547.56;;;21.04;56.25
54806;BME280;62866;55.776;37.496;2022-08-19T03:36:46;100551.81;;;21.00;56.06
54806;BME280;62866;55.776;37.496;2022-08-19T03:39:12;100552.66;;;21.00;56.30
54806;BME280;62866;55.776;37.496;2022-08-19T03:41:40;100540.69;;;21.01;56.57
54806;BME280;62866;55.776;37.496;2022-08-19T03:44:06;100548.38;;;21.04;56.45
54806;BME280;62866;55.776;37.496;2022-08-19T03:46:34;100549.81;;;21.07;56.26
54806;BME280;62866;55.776;37.496;2022-08-19T03:49:02;100540.81;;;21.06;56.33
54806;BME280;62866;55.776;37.496;2022-08-19T03:51:36;100554.53;;;21.23;56.08
54806;BME280;62866;55.776;37.496;2022-08-19T03:54:04;100555.59;;;21.22;56.34
54806;BME280;62866;55.776;37.496;2022-08-19T03:56:30;100546.97;;;21.25;56.15
54806;BME280;62866;55.776;37.496;2022-08-19T03:58:58;100551.91;;;21.28;56.00
54806;BME280;62866;55.776;37.496;2022-08-19T04:01:27;100549.41;;;21.38;56.00
54806;BME280;62866;55.776;37.496;2022-08-19T04:03:53;100552.34;;;21.48;55.63
54806;BME280;62866;55.776;37.496;2022-08-19T04:06:23;100551.84;;;21.51;55.83
54806;BME280;62866;55.776;37.496;2022-08-19T04:08:50;100554.56;;;21.51;55.71
54806;BME280;62866;55.776;37.496;2022-08-19T04:11:20;100557.28;;;21.51;55.58
54806;BME280;62866;55.776;37.496;2022-08-19T04:13:47;100552.94;;;21.50;55.61
54806;BME280;62866;55.776;37.496;2022-08-19T04:16:13;100557.63;;;21.55;55.65
54806;BME280;62866;55.776;37.496;2022-08-19T04:18:39;100551.34;;;21.66;55.20
54806;BME280;62866;55.776;37.496;2022-08-19T04:21:07;100552.84;;;21.74;55.07
54806;BME280;62866;55.776;37.496;2022-08-19T04:23:34;100556.94;;;21.76;55.06
54806;BME280;62866;55.776;37.496;2022-08-19T04:26:02;100562.06;;;21.73;54.91
54806;BME280;62866;55.776;37.496;2022-08-19T04:28:28;100571.38;;;21.77;54.94
54806;BME280;62866;55.776;37.496;2022-08-19T04:30:54;100567.97;;;21.81;54.90
54806;BME280;62866;55.776;37.496;2022-08-19T04:33:23;100571.34;;;22.00;54.35
54806;BME280;62866;55.776;37.496;2022-08-19T04:35:50;100572.09;;;22.12;54.21
54806;BME280;62866;55.776;37.496;2022-08-19T04:38:19;100567.00;;;22.16;54.25
54806;BME280;62866;55.776;37.496;2022-08-19T04:40:47;100567.19;;;22.26;53.73
54806;BME280;62866;55.776;37.496;2022-08-19T04:43:32;100571.28;;;22.28;54.08
54806;BME280;62866;55.776;37.496;2022-08-19T04:46:04;100571.94;;;22.36;53.70
54806;BME280;62866;55.776;37.496;2022-08-19T04:48:30;100569.09;;;22.42;53.92
54806;BME280;62866;55.776;37.496;2022-08-19T04:50:57;100572.88;;;22.58;53.58
54806;BME280;62866;55.776;37.496;2022-08-19T04:53:25;100573.72;;;22.75;52.65
54806;BME280;62866;55.776;37.496;2022-08-19T04:55:51;100572.78;;;22.69;52.87
54806;BME280;62866;55.776;37.496;2022-08-19T04:58:17;100574.28;;;22.77;52.67
54806;BME280;62866;55.776;37.496;2022-08-19T05:00:43;100573.63;;;22.87;52.33
54806;BME280;62866;55.776;37.496;2022-08-19T05:03:09;100575.09;;;22.94;51.96
54806;BME280;62866;55.776;37.496;2022-08-19T05:05:39;100575.19;;;22.99;51.84
54806;BME280;62866;55.776;37.496;2022-08-19T05:08:05;100583.41;;;23.04;51.82
54806;BME280;62866;55.776;37.496;2022-08-19T05:10:31;100581.56;;;23.10;51.70
54806;BME280;62866;55.776;37.496;2022-08-19T05:12:56;100583.19;;;23.28;51.73
54806;BME280;62866;55.776;37.496;2022-08-19T05:15:22;100559.53;;;23.33;51.19
54806;BME280;62866;55.776;37.496;2022-08-19T05:17:48;100569.97;;;23.58;50.84
54806;BME280;62866;55.776;37.496;2022-08-19T05:20:32;100577.94;;;24.13;49.81
54806;BME280;62866;55.776;37.496;2022-08-19T05:23:16;100572.06;;;24.58;49.14
54806;BME280;62866;55.776;37.496;2022-08-19T05:25:42;100577.00;;;24.93;48.06
54806;BME280;62866;55.776;37.496;2022-08-19T05:28:07;100567.81;;;25.10;48.29
54806;BME280;62866;55.776;37.496;2022-08-19T05:30:33;100569.47;;;25.16;46.79
54806;BME280;62866;55.776;37.496;2022-08-19T05:32:59;100575.63;;;24.96;47.27
54806;BME280;62866;55.776;37.496;2022-08-19T05:35:25;100579.06;;;24.81;47.82
54806;BME280;62866;55.776;37.496;2022-08-19T05:37:50;100570.31;;;24.79;47.82
54806;BME280;62866;55.776;37.496;2022-08-19T05:40:16;100576.28;;;25.08;47.57
54806;BME280;62866;55.776;37.496;2022-08-19T05:42:41;100567.09;;;25.35;47.10
54806;BME280;62866;55.776;37.496;2022-08-19T05:45:07;100568.06;;;25.60;46.47
54806;BME280;62866;55.776;37.496;2022-08-19T05:47:33;100572.34;;;25.46;46.66
54806;BME280;62866;55.776;37.496;2022-08-19T05:50:00;100564.28;;;25.19;47.14
54806;BME280;62866;55.776;37.496;2022-08-19T05:52:27;100572.22;;;25.16;47.31
54806;BME280;62866;55.776;37.496;2022-08-19T05:54:53;100581.16;;;25.01;47.69
54806;BME280;62866;55.776;37.496;2022-08-19T05:57:20;100576.09;;;24.88;48.34
54806;BME280;62866;55.776;37.496;2022-08-19T05:59:46;100582.63;;;24.82;48.59
54806;BME280;62866;55.776;37.496;2022-08-19T06:02:13;100583.16;;;24.79;48.43
54806;BME280;62866;55.776;37.496;2022-08-19T06:04:39;100580.41;;;24.79;48.59
54806;BME280;62866;55.776;37.496;2022-08-19T06:07:08;100566.47;;;24.80;48.43
54806;BME280;62866;55.776;37.496;2022-08-19T06:09:33;100569.53;;;24.84;48.49
54806;BME280;62866;55.776;37.496;2022-08-19T06:12:00;100572.44;;;24.72;48.69
54806;BME280;62866;55.776;37.496;2022-08-19T06:14:30;100578.03;;;24.50;49.20
54806;BME280;62866;55.776;37.496;2022-08-19T06:16:57;100589.63;;;24.36;49.77
54806;BME280;62866;55.776;37.496;2022-08-19T06:19:23;100595.91;;;24.31;49.70
54806;BME280;62866;55.776;37.496;2022-08-19T06:21:50;100590.91;;;24.23;50.08
54806;BME280;62866;55.776;37.496;2022-08-19T06:24:20;100588.50;;;24.27;49.94
54806;BME280;62866;55.776;37.496;2022-08-19T06:26:47;100596.72;;;24.32;50.28
54806;BME280;62866;55.776;37.496;2022-08-19T06:29:15;100592.22;;;24.47;50.06
54806;BME280;62866;55.776;37.496;2022-08-19T06:31:43;100590.69;;;24.62;49.80
54806;BME280;62866;55.776;37.496;2022-08-19T06:34:09;100586.84;;;24.57;50.08
54806;BME280;62866;55.776;37.496;2022-08-19T06:36:38;100588.72;;;24.52;50.37
54806;BME280;62866;55.776;37.496;2022-08-19T06:39:09;100584.94;;;24.63;49.80
54806;BME280;62866;55.776;37.496;2022-08-19T06:41:37;100584.22;;;24.73;49.44
54806;BME280;62866;55.776;37.496;2022-08-19T06:44:04;100587.50;;;24.75;49.51
54806;BME280;62866;55.776;37.496;2022-08-19T06:46:30;100587.59;;;24.85;49.94
54806;BME280;62866;55.776;37.496;2022-08-19T06:48:56;100594.56;;;25.03;49.10
54806;BME280;62866;55.776;37.496;2022-08-19T06:51:22;100593.78;;;25.07;48.65
54806;BME280;62866;55.776;37.496;2022-08-19T06:53:51;100590.72;;;25.04;49.11
54806;BME280;62866;55.776;37.496;2022-08-19T06:56:20;100585.81;;;25.01;49.10
54806;BME280;62866;55.776;37.496;2022-08-19T06:58:46;100585.25;;;24.99;49.34
54806;BME280;62866;55.776;37.496;2022-08-19T07:01:12;100582.47;;;24.93;49.08
54806;BME280;62866;55.776;37.496;2022-08-19T07:03:38;100590.94;;;24.92;49.20
54806;BME280;62866;55.776;37.496;2022-08-19T07:08:30;100586.13;;;24.77;49.71
54806;BME280;62866;55.776;37.496;2022-08-19T07:10:56;100583.91;;;24.69;49.56
54806;BME280;62866;55.776;37.496;2022-08-19T07:13:22;100573.19;;;24.63;49.49
54806;BME280;62866;55.776;37.496;2022-08-19T07:15:48;100581.97;;;24.70;49.70
54806;BME280;62866;55.776;37.496;2022-08-19T07:18:17;100568.78;;;24.56;50.10
54806;BME280;62866;55.776;37.496;2022-08-19T07:20:42;100582.53;;;24.67;49.85
54806;BME280;62866;55.776;37.496;2022-08-19T07:23:09;100584.53;;;24.76;49.88
54806;BME280;62866;55.776;37.496;2022-08-19T07:25:36;100572.00;;;24.85;49.39
54806;BME280;62866;55.776;37.496;2022-08-19T07:28:02;100585.75;;;24.95;48.79
54806;BME280;62866;55.776;37.496;2022-08-19T07:30:28;100591.56;;;25.04;48.19
54806;BME280;62866;55.776;37.496;2022-08-19T07:32:53;100591.09;;;25.17;47.43
54806;BME280;62866;55.776;37.496;2022-08-19T07:35:19;100573.63;;;25.28;47.60
54806;BME280;62866;55.776;37.496;2022-08-19T07:37:45;100579.78;;;25.56;46.58
54806;BME280;62866;55.776;37.496;2022-08-19T07:40:11;100578.50;;;25.74;45.53
54806;BME280;62866;55.776;37.496;2022-08-19T07:42:37;100586.22;;;25.92;45.37
54806;BME280;62866;55.776;37.496;2022-08-19T07:45:04;100587.38;;;26.11;44.78
54806;BME280;62866;55.776;37.496;2022-08-19T07:47:30;100590.44;;;26.35;44.02
54806;BME280;62866;55.776;37.496;2022-08-19T07:49:56;100585.50;;;26.57;43.50
54806;BME280;62866;55.776;37.496;2022-08-19T07:52:21;100587.97;;;26.64;43.08
54806;BME280;62866;55.776;37.496;2022-08-19T07:54:47;100587.66;;;26.70;42.70
54806;BME280;62866;55.776;37.496;2022-08-19T07:57:15;100592.91;;;26.77;42.61
54806;BME280;62866;55.776;37.496;2022-08-19T07:59:40;100594.81;;;26.92;42.40
54806;BME280;62866;55.776;37.496;2022-08-19T08:02:06;100587.41;;;26.92;42.03
54806;BME280;62866;55.776;37.496;2022-08-19T08:04:33;100580.53;;;27.10;41.85
54806;BME280;62866;55.776;37.496;2022-08-19T08:07:17;100587.44;;;27.77;40.64
54806;BME280;62866;55.776;37.496;2022-08-19T08:10:02;100597.78;;;27.95;40.12
54806;BME280;62866;55.776;37.496;2022-08-19T08:12:33;100597.41;;;28.12;40.00
54806;BME280;62866;55.776;37.496;2022-08-19T08:15:02;100600.16;;;28.12;39.89
54806;BME280;62866;55.776;37.496;2022-08-19T08:17:29;100613.50;;;27.84;39.89
54806;BME280;62866;55.776;37.496;2022-08-19T08:19:54;100604.28;;;28.04;39.84
54806;BME280;62866;55.776;37.496;2022-08-19T08:22:21;100604.63;;;28.76;38.45
54806;BME280;62866;55.776;37.496;2022-08-19T08:25:09;100613.19;;;30.17;36.55
54806;BME280;62866;55.776;37.496;2022-08-19T08:27:39;100621.47;;;30.36;36.59
54806;BME280;62866;55.776;37.496;2022-08-19T08:30:11;100621.56;;;29.69;37.55
54806;BME280;62866;55.776;37.496;2022-08-19T08:32:38;100630.00;;;29.54;37.75
54806;BME280;62866;55.776;37.496;2022-08-19T08:35:05;100623.28;;;31.10;35.58
54806;BME280;62866;55.776;37.496;2022-08-19T08:37:31;100631.16;;;31.99;34.04
54806;BME280;62866;55.776;37.496;2022-08-19T08:39:57;100625.47;;;31.68;34.32
54806;BME280;62866;55.776;37.496;2022-08-19T08:42:28;100615.41;;;31.31;34.73
54806;BME280;62866;55.776;37.496;2022-08-19T08:45:00;100616.44;;;31.21;35.15
54806;BME280;62866;55.776;37.496;2022-08-19T08:47:30;100615.03;;;30.59;35.72
54806;BME280;62866;55.776;37.496;2022-08-19T08:50:19;100602.56;;;29.87;37.53
54806;BME280;62866;55.776;37.496;2022-08-19T08:52:51;100603.09;;;29.46;38.11
54806;BME280;62866;55.776;37.496;2022-08-19T08:55:21;100606.69;;;29.18;37.36
54806;BME280;62866;55.776;37.496;2022-08-19T09:00:23;100604.50;;;28.57;37.96
54806;BME280;62866;55.776;37.496;2022-08-19T09:02:50;100610.97;;;28.76;38.11
54806;BME280;62866;55.776;37.496;2022-08-19T09:05:16;100612.78;;;29.15;37.37
54806;BME280;62866;55.776;37.496;2022-08-19T09:08:13;100606.97;;;29.45;37.45
54806;BME280;62866;55.776;37.496;2022-08-19T09:10:51;100607.06;;;29.59;37.50
54806;BME280;62866;55.776;37.496;2022-08-19T09:16:14;100594.94;;;30.21;36.18
54806;BME280;62866;55.776;37.496;2022-08-19T09:18:50;100606.06;;;30.48;36.12
54806;BME280;62866;55.776;37.496;2022-08-19T09:21:19;100600.84;;;30.66;35.44
54806;BME280;62866;55.776;37.496;2022-08-19T09:23:46;100599.72;;;30.48;35.94
54806;BME280;62866;55.776;37.496;2022-08-19T09:26:14;100615.00;;;29.84;36.62
54806;BME280;62866;55.776;37.496;2022-08-19T09:28:41;100620.13;;;29.24;37.90
54806;BME280;62866;55.776;37.496;2022-08-19T09:31:11;100606.00;;;28.78;38.39
54806;BME280;62866;55.776;37.496;2022-08-19T09:33:37;100606.88;;;28.35;38.66
54806;BME280;62866;55.776;37.496;2022-08-19T09:36:09;100596.63;;;28.01;39.17
54806;BME280;62866;55.776;37.496;2022-08-19T09:38:36;100617.88;;;27.85;39.41
54806;BME280;62866;55.776;37.496;2022-08-19T09:41:06;100618.50;;;27.72;40.01
54806;BME280;62866;55.776;37.496;2022-08-19T09:43:33;100614.44;;;27.60;40.17
54806;BME280;62866;55.776;37.496;2022-08-19T09:46:05;100625.16;;;27.61;40.27
54806;BME280;62866;55.776;37.496;2022-08-19T09:48:33;100621.56;;;27.50;40.60
54806;BME280;62866;55.776;37.496;2022-08-19T09:51:06;100624.06;;;27.57;39.47
54806;BME280;62866;55.776;37.496;2022-08-19T09:53:34;100621.03;;;27.59;38.66
54806;BME280;62866;55.776;37.496;2022-08-19T09:56:00;100614.13;;;27.66;38.27
54806;BME280;62866;55.776;37.496;2022-08-19T09:58:26;100629.81;;;27.61;37.89
54806;BME280;62866;55.776;37.496;2022-08-19T10:00:57;100617.47;;;27.58;38.19
54806;BME280;62866;55.776;37.496;2022-08-19T10:03:24;100623.50;;;27.55;37.89
54806;BME280;62866;55.776;37.496;2022-08-19T10:05:50;100623.78;;;27.48;37.88
54806;BME280;62866;55.776;37.496;2022-08-19T10:08:34;100622.41;;;27.51;37.83
54806;BME280;62866;55.776;37.496;2022-08-19T10:11:00;100626.03;;;27.36;37.81
54806;BME280;62866;55.776;37.496;2022-08-19T10:13:28;100617.22;;;27.39;37.82
54806;BME280;62866;55.776;37.496;2022-08-19T10:16:01;100620.19;;;27.48;37.81
54806;BME280;62866;55.776;37.496;2022-08-19T10:18:27;100623.53;;;27.45;36.21
54806;BME280;62866;55.776;37.496;2022-08-19T10:23:32;100619.66;;;27.56;36.58
54806;BME280;62866;55.776;37.496;2022-08-19T10:26:00;100622.69;;;27.60;36.50
54806;BME280;62866;55.776;37.496;2022-08-19T10:28:26;100626.25;;;27.55;37.18
54806;BME280;62866;55.776;37.496;2022-08-19T10:30:51;100619.69;;;27.41;38.02
54806;BME280;62866;55.776;37.496;2022-08-19T10:33:17;100625.44;;;27.44;38.39
54806;BME280;62866;55.776;37.496;2022-08-19T10:35:43;100621.63;;;27.35;38.45
54806;BME280;62866;55.776;37.496;2022-08-19T10:38:09;100615.56;;;27.38;38.41
54806;BME280;62866;55.776;37.496;2022-08-19T10:40:34;100626.28;;;27.45;38.33
54806;BME280;62866;55.776;37.496;2022-08-19T10:43:00;100625.16;;;27.46;37.16
54806;BME280;62866;55.776;37.496;2022-08-19T10:45:25;100630.13;;;27.44;36.20
54806;BME280;62866;55.776;37.496;2022-08-19T10:47:52;100629.56;;;27.42;35.57
54806;BME280;62866;55.776;37.496;2022-08-19T10:50:19;100615.56;;;27.43;35.33
54806;BME280;62866;55.776;37.496;2022-08-19T10:53:04;100629.00;;;27.50;33.17
54806;BME280;62866;55.776;37.496;2022-08-19T10:55:30;100630.91;;;27.54;30.23
54806;BME280;62866;55.776;37.496;2022-08-19T10:58:17;100641.09;;;27.44;29.39
54806;BME280;62866;55.776;37.496;2022-08-19T11:00:58;100627.38;;;27.39;29.80
54806;BME280;62866;55.776;37.496;2022-08-19T11:03:25;100632.88;;;27.29;28.43
54806;BME280;62866;55.776;37.496;2022-08-19T11:06:00;100637.53;;;27.38;28.70
54806;BME280;62866;55.776;37.496;2022-08-19T11:08:26;100640.56;;;27.37;27.45
54806;BME280;62866;55.776;37.496;2022-08-19T11:10:53;100652.66;;;27.36;27.23
54806;BME280;62866;55.776;37.496;2022-08-19T11:13:26;100633.75;;;27.24;28.04
54806;BME280;62866;55.776;37.496;2022-08-19T11:16:00;100632.63;;;27.30;28.84
54806;BME280;62866;55.776;37.496;2022-08-19T11:18:27;100621.09;;;27.23;29.69
54806;BME280;62866;55.776;37.496;2022-08-19T11:20:52;100637.84;;;27.22;29.47
54806;BME280;62866;55.776;37.496;2022-08-19T11:23:18;100634.84;;;27.18;29.60
54806;BME280;62866;55.776;37.496;2022-08-19T11:25:44;100643.38;;;27.06;30.10
54806;BME280;62866;55.776;37.496;2022-08-19T11:28:11;100634.88;;;26.98;29.48
54806;BME280;62866;55.776;37.496;2022-08-19T11:30:38;100623.06;;;26.87;29.18
54806;BME280;62866;55.776;37.496;2022-08-19T11:33:04;100625.53;;;26.83;29.38
54806;BME280;62866;55.776;37.496;2022-08-19T11:35:29;100623.59;;;26.79;28.27
54806;BME280;62866;55.776;37.496;2022-08-19T11:37:55;100619.50;;;26.76;27.99
54806;BME280;62866;55.776;37.496;2022-08-19T11:40:23;100610.47;;;26.76;27.96
54806;BME280;62866;55.776;37.496;2022-08-19T11:42:48;100626.09;;;26.86;28.12
54806;BME280;62866;55.776;37.496;2022-08-19T11:45:21;100620.59;;;26.86;28.42
54806;BME280;62866;55.776;37.496;2022-08-19T11:47:47;100629.66;;;26.86;29.02
54806;BME280;62866;55.776;37.496;2022-08-19T11:50:13;100634.91;;;26.93;29.64
54806;BME280;62866;55.776;37.496;2022-08-19T11:52:39;100632.97;;;26.98;29.56
54806;BME280;62866;55.776;37.496;2022-08-19T11:55:05;100625.25;;;27.05;29.68
54806;BME280;62866;55.776;37.496;2022-08-19T11:57:31;100626.88;;;27.22;29.96
54806;BME280;62866;55.776;37.496;2022-08-19T11:59:56;100623.06;;;27.17;30.32
54806;BME280;62866;55.776;37.496;2022-08-19T12:02:22;100632.63;;;27.35;30.45
54806;BME280;62866;55.776;37.496;2022-08-19T12:04:48;100620.22;;;27.43;30.85
54806;BME280;62866;55.776;37.496;2022-08-19T12:07:14;100610.34;;;27.42;30.97
54806;BME280;62866;55.776;37.496;2022-08-19T12:09:40;100629.81;;;27.50;31.37
54806;BME280;62866;55.776;37.496;2022-08-19T12:12:06;100617.22;;;27.39;31.65
54806;BME280;62866;55.776;37.496;2022-08-19T12:14:32;100626.56;;;27.33;32.16
54806;BME280;62866;55.776;37.496;2022-08-19T12:16:57;100616.66;;;27.42;32.13
54806;BME280;62866;55.776;37.496;2022-08-19T12:19:23;100612.00;;;27.38;32.63
54806;BME280;62866;55.776;37.496;2022-08-19T12:21:50;100623.53;;;27.40;32.70
54806;BME280;62866;55.776;37.496;2022-08-19T12:24:17;100633.69;;;27.39;33.19
54806;BME280;62866;55.776;37.496;2022-08-19T12:26:48;100626.81;;;27.37;33.69
54806;BME280;62866;55.776;37.496;2022-08-19T12:29:14;100617.81;;;27.26;34.03
54806;BME280;62866;55.776;37.496;2022-08-19T12:31:40;100603.25;;;27.20;34.39
54806;BME280;62866;55.776;37.496;2022-08-19T12:34:05;100607.13;;;27.19;34.86
54806;BME280;62866;55.776;37.496;2022-08-19T12:36:31;100610.44;;;27.11;35.40
54806;BME280;62866;55.776;37.496;2022-08-19T12:38:58;100612.94;;;27.03;35.56
54806;BME280;62866;55.776;37.496;2022-08-19T12:41:24;100584.94;;;26.80;35.86
54806;BME280;62866;55.776;37.496;2022-08-19T12:43:50;100608.53;;;26.76;36.35
54806;BME280;62866;55.776;37.496;2022-08-19T12:46:17;100597.81;;;26.55;36.80
54806;BME280;62866;55.776;37.496;2022-08-19T12:48:43;100611.03;;;26.53;37.05
54806;BME280;62866;55.776;37.496;2022-08-19T12:51:13;100606.63;;;26.41;37.43
54806;BME280;62866;55.776;37.496;2022-08-19T12:53:40;100611.00;;;26.32;37.94